createdAt,value
2023-01-01T00:01:40.444Z,17.55
2023-01-01T00:04:10.938Z,17.56
2023-01-01T00:06:37.631Z,17.60
2023-01-01T00:09:22.933Z,17.63
2023-01-01T00:11:49.435Z,17.66
2023-01-01T00:14:15.927Z,17.57
2023-01-01T00:16:42.410Z,17.60
2023-01-01T00:19:08.977Z,17.59
2023-01-01T00:21:35.428Z,17.63
2023-01-01T00:24:02.265Z,17.58
2023-01-01T00:26:34.641Z,17.69
2023-01-01T00:29:02.030Z,17.58
2023-01-01T00:31:28.986Z,17.67
2023-01-01T00:33:55.988Z,17.73
2023-01-01T00:36:24.469Z,17.75
2023-01-01T00:38:50.925Z,17.76
2023-01-01T00:41:18.344Z,17.76
2023-01-01T00:43:45.358Z,17.76
2023-01-01T00:46:12.590Z,17.68
2023-01-01T00:48:39.357Z,17.72
2023-01-01T00:51:07.619Z,17.78
2023-01-01T00:53:34.166Z,17.75
2023-01-01T00:56:00.654Z,17.71
2023-01-01T00:58:27.216Z,17.72
2023-01-01T01:00:54.805Z,17.71
2023-01-01T01:03:28.128Z,17.70
2023-01-01T01:05:55.975Z,17.74
2023-01-01T01:08:28.547Z,17.72
2023-01-01T01:11:05.863Z,17.64
2023-01-01T01:13:32.534Z,17.72
2023-01-01T01:15:59.165Z,17.68
2023-01-01T01:18:25.637Z,17.61
2023-01-01T01:20:53.341Z,17.68
2023-01-01T01:23:20.984Z,17.68
2023-01-01T01:25:47.629Z,17.72
2023-01-01T01:28:14.135Z,17.73
2023-01-01T01:30:41.150Z,17.76
2023-01-01T01:33:07.790Z,17.78
2023-01-01T01:35:34.310Z,17.82
2023-01-01T01:38:00.707Z,17.79
2023-01-01T01:40:27.179Z,17.79
2023-01-01T01:42:53.567Z,17.81
2023-01-01T01:45:20.211Z,17.80
2023-01-01T01:47:49.747Z,17.85
2023-01-01T01:50:30.396Z,17.85
2023-01-01T01:53:02.440Z,17.81
2023-01-01T01:55:31.202Z,17.75
2023-01-01T01:57:57.850Z,17.78
2023-01-01T02:00:24.477Z,17.81
2023-01-01T02:02:57.365Z,17.80
2023-01-01T02:05:24.972Z,17.77
2023-01-01T02:07:52.951Z,17.77
2023-01-01T02:10:19.507Z,17.80
2023-01-01T02:12:45.991Z,17.79
2023-01-01T02:15:12.773Z,17.83
2023-01-01T02:17:55.411Z,17.86
2023-01-01T02:20:40.399Z,17.86
2023-01-01T02:23:18.662Z,17.84
2023-01-01T02:26:22.631Z,17.82
2023-01-01T02:29:03.296Z,17.77
2023-01-01T02:31:42.267Z,17.64
2023-01-01T02:34:13.489Z,17.66
2023-01-01T02:36:48.523Z,17.61
2023-01-01T02:39:16.889Z,17.60
2023-01-01T02:41:50.269Z,17.56
2023-01-01T02:44:19.745Z,17.54
2023-01-01T02:46:46.139Z,17.54
2023-01-01T02:49:12.569Z,17.57
2023-01-01T02:51:50.963Z,17.64
2023-01-01T02:54:32.461Z,17.65
2023-01-01T02:57:10.115Z,17.60
2023-01-01T03:00:17.480Z,17.67
2023-01-01T03:03:21.136Z,17.66
2023-01-01T03:06:18.485Z,17.65
2023-01-01T03:09:05.859Z,17.65
2023-01-01T03:11:58.553Z,17.62
2023-01-01T03:14:30.943Z,17.53
2023-01-01T03:17:06.095Z,17.56
2023-01-01T03:19:37.887Z,17.61
2023-01-01T03:22:08.079Z,17.53
2023-01-01T03:24:36.212Z,17.60
2023-01-01T03:27:08.015Z,17.44
2023-01-01T03:29:39.440Z,17.52
2023-01-01T03:32:10.731Z,17.53
2023-01-01T03:34:42.625Z,17.49
2023-01-01T03:37:15.018Z,17.50
2023-01-01T03:39:54.957Z,17.42
2023-01-01T03:42:36.740Z,17.45
2023-01-01T03:45:26.264Z,17.38
2023-01-01T03:47:53.152Z,17.34
2023-01-01T03:50:24.375Z,17.28
2023-01-01T03:53:03.108Z,17.38
2023-01-01T03:55:41.869Z,17.38
2023-01-01T03:58:26.297Z,17.34
2023-01-01T04:01:04.124Z,17.31
2023-01-01T04:03:32.728Z,17.32
2023-01-01T04:06:01.779Z,17.34
2023-01-01T04:08:28.347Z,17.30
2023-01-01T04:10:57.419Z,17.35
2023-01-01T04:13:23.867Z,17.25
2023-01-01T04:15:50.872Z,17.25
2023-01-01T04:18:17.323Z,17.25
2023-01-01T04:20:43.768Z,17.22
2023-01-01T04:23:10.251Z,17.22
2023-01-01T04:25:36.705Z,17.15
2023-01-01T04:28:06.683Z,17.21
2023-01-01T04:32:59.405Z,17.14
2023-01-01T04:35:25.919Z,17.17
2023-01-01T04:37:52.696Z,17.20
2023-01-01T04:40:19.230Z,17.20
2023-01-01T04:42:45.689Z,17.17
2023-01-01T04:45:15.108Z,17.15
2023-01-01T04:47:42.020Z,17.17
2023-01-01T04:50:09.209Z,17.17
2023-01-01T04:52:35.666Z,17.16
2023-01-01T04:55:02.135Z,17.10
2023-01-01T04:57:32.105Z,17.15
2023-01-01T04:59:58.602Z,17.16
2023-01-01T05:02:26.050Z,17.13
2023-01-01T05:04:52.855Z,17.18
2023-01-01T05:07:19.280Z,17.17
2023-01-01T05:09:45.752Z,17.15
2023-01-01T05:12:12.179Z,17.13
2023-01-01T05:14:38.614Z,17.17
2023-01-01T05:17:05.005Z,17.22
2023-01-01T05:19:31.385Z,17.23
2023-01-01T05:21:57.785Z,17.22
2023-01-01T05:24:24.335Z,17.21
2023-01-01T05:26:50.808Z,17.23
2023-01-01T05:29:17.762Z,17.26
2023-01-01T05:31:45.873Z,17.34
2023-01-01T05:34:12.716Z,17.34
2023-01-01T05:36:39.504Z,17.36
2023-01-01T05:39:12.004Z,17.39
2023-01-01T05:41:38.954Z,17.38
2023-01-01T05:44:07.152Z,17.42
2023-01-01T05:46:33.723Z,17.41
2023-01-01T05:49:00.822Z,17.38
2023-01-01T05:51:29.614Z,17.35
2023-01-01T05:53:56.792Z,17.40
2023-01-01T05:56:23.628Z,17.38
2023-01-01T05:58:50.182Z,17.27
2023-01-01T06:01:25.690Z,17.41
2023-01-01T06:03:53.517Z,17.39
2023-01-01T06:06:29.133Z,17.40
2023-01-01T06:09:05.378Z,17.39
2023-01-01T06:11:33.097Z,17.41
2023-01-01T06:14:01.143Z,17.42
2023-01-01T06:16:29.324Z,17.47
2023-01-01T06:18:56.134Z,17.42
2023-01-01T06:21:24.741Z,17.44
2023-01-01T06:23:51.461Z,17.45
2023-01-01T06:26:29.547Z,17.43
2023-01-01T06:28:56.976Z,17.39
2023-01-01T06:31:23.658Z,17.41
2023-01-01T06:33:53.545Z,17.36
2023-01-01T06:36:22.748Z,17.41
2023-01-01T06:38:51.815Z,17.47
2023-01-01T06:41:25.526Z,17.48
2023-01-01T06:43:52.050Z,17.41
2023-01-01T06:46:19.564Z,17.38
2023-01-01T06:48:48.725Z,17.46
2023-01-01T06:51:17.955Z,17.50
2023-01-01T06:53:44.431Z,17.39
2023-01-01T06:56:11.155Z,17.38
2023-01-01T06:58:37.825Z,17.36
2023-01-01T07:01:30.760Z,17.41
2023-01-01T07:04:02.153Z,17.29
2023-01-01T07:06:30.398Z,17.36
2023-01-01T07:08:57.116Z,17.31
2023-01-01T07:11:25.958Z,17.31
2023-01-01T07:13:52.670Z,17.20
2023-01-01T07:16:19.467Z,17.20
2023-01-01T07:18:47.073Z,17.21
2023-01-01T07:21:29.238Z,17.22
2023-01-01T07:24:00.112Z,17.16
2023-01-01T07:26:27.829Z,17.18
2023-01-01T07:28:54.392Z,17.14
2023-01-01T07:31:21.246Z,17.04
2023-01-01T07:33:47.775Z,17.03
2023-01-01T07:36:14.225Z,17.02
2023-01-01T07:38:40.937Z,16.98
2023-01-01T07:41:07.634Z,17.00
2023-01-01T07:43:34.119Z,16.95
2023-01-01T07:46:00.827Z,16.98
2023-01-01T07:48:27.841Z,16.97
2023-01-01T07:50:54.454Z,16.99
2023-01-01T07:53:20.898Z,16.94
2023-01-01T07:55:47.724Z,16.82
2023-01-01T07:58:14.134Z,16.88
2023-01-01T08:00:40.583Z,16.89
2023-01-01T08:03:08.009Z,16.83
2023-01-01T08:05:35.794Z,16.87
2023-01-01T08:08:02.386Z,16.81
2023-01-01T08:10:29.083Z,16.79
2023-01-01T08:13:03.696Z,16.86
2023-01-01T08:15:30.236Z,16.81
2023-01-01T08:17:58.217Z,16.84
2023-01-01T08:20:25.252Z,16.84
2023-01-01T08:22:51.729Z,16.78
2023-01-01T08:25:18.445Z,16.86
2023-01-01T08:27:45.095Z,16.82
2023-01-01T08:30:13.391Z,16.75
2023-01-01T08:32:39.791Z,16.79
2023-01-01T08:35:06.864Z,16.81
2023-01-01T08:37:33.306Z,16.80
2023-01-01T08:39:59.706Z,16.76
2023-01-01T08:42:26.112Z,16.71
2023-01-01T08:44:55.037Z,16.80
2023-01-01T08:47:24.567Z,16.77
2023-01-01T08:49:51.596Z,16.76
2023-01-01T08:52:18.598Z,16.80
2023-01-01T08:54:45.128Z,16.77
2023-01-01T08:57:11.969Z,16.75
2023-01-01T08:59:38.682Z,16.70
2023-01-01T09:02:05.233Z,16.77
2023-01-01T09:04:32.016Z,16.75
2023-01-01T09:06:58.505Z,16.75
2023-01-01T09:09:31.108Z,16.75
2023-01-01T09:12:01.706Z,16.73
2023-01-01T09:14:28.181Z,16.76
2023-01-01T09:16:54.748Z,16.76
2023-01-01T09:19:21.254Z,16.80
2023-01-01T09:21:47.657Z,16.74
2023-01-01T09:24:14.026Z,16.75
2023-01-01T09:26:40.513Z,16.69
2023-01-01T09:29:06.982Z,16.69
2023-01-01T09:31:33.477Z,16.63
2023-01-01T09:33:59.901Z,16.64
2023-01-01T09:36:30.456Z,16.62
2023-01-01T09:38:58.246Z,16.59
2023-01-01T09:41:52.123Z,16.68
2023-01-01T09:44:32.672Z,16.71
2023-01-01T09:47:02.334Z,16.68
2023-01-01T09:49:38.050Z,16.73
2023-01-01T09:52:05.654Z,16.66
2023-01-01T09:54:43.261Z,16.71
2023-01-01T09:57:19.653Z,16.67
2023-01-01T09:59:46.801Z,16.67
2023-01-01T10:02:54.045Z,16.70
2023-01-01T10:05:57.462Z,16.68
2023-01-01T10:08:38.520Z,16.60
2023-01-01T10:11:15.032Z,16.66
2023-01-01T10:13:45.134Z,16.67
2023-01-01T10:16:24.685Z,16.70
2023-01-01T10:18:56.247Z,16.68
2023-01-01T10:21:46.715Z,16.74
2023-01-01T10:24:26.026Z,16.73
2023-01-01T10:26:55.479Z,16.76
2023-01-01T10:29:27.390Z,16.78
2023-01-01T10:31:56.964Z,16.82
2023-01-01T10:34:28.422Z,16.83
2023-01-01T10:36:57.387Z,16.85
2023-01-01T10:39:24.862Z,16.84
2023-01-01T10:41:51.817Z,16.95
2023-01-01T10:44:33.561Z,17.00
2023-01-01T10:47:16.947Z,17.08
2023-01-01T10:50:01.232Z,17.21
2023-01-01T10:52:40.637Z,17.33
2023-01-01T10:55:20.525Z,17.41
2023-01-01T10:57:47.058Z,17.43
2023-01-01T11:00:27.321Z,17.52
2023-01-01T11:03:06.042Z,17.55
2023-01-01T11:05:32.588Z,17.55
2023-01-01T11:07:59.022Z,17.56
2023-01-01T11:10:25.793Z,17.52
2023-01-01T11:13:09.748Z,17.53
2023-01-01T11:15:40.965Z,17.52
2023-01-01T11:18:22.727Z,17.61
2023-01-01T11:20:55.070Z,17.61
2023-01-01T11:23:36.336Z,17.60
2023-01-01T11:26:14.655Z,17.64
2023-01-01T11:28:42.177Z,17.73
2023-01-01T11:31:20.213Z,17.82
2023-01-01T11:33:52.993Z,17.79
2023-01-01T11:36:34.679Z,17.95
2023-01-01T11:39:27.014Z,17.91
2023-01-01T11:41:56.554Z,17.83
2023-01-01T11:44:31.990Z,17.86
2023-01-01T11:46:59.187Z,17.79
2023-01-01T11:49:29.407Z,17.81
2023-01-01T11:51:56.178Z,17.90
2023-01-01T11:54:35.802Z,17.68
2023-01-01T11:57:13.193Z,17.63
2023-01-01T12:00:01.995Z,17.52
2023-01-01T12:02:41.899Z,17.46
2023-01-01T12:05:24.101Z,17.40
2023-01-01T12:07:52.214Z,17.29
2023-01-01T12:10:31.200Z,17.29
2023-01-01T12:13:17.416Z,17.30
2023-01-01T12:16:06.423Z,17.28
2023-01-01T12:18:42.167Z,17.27
2023-01-01T12:21:18.748Z,17.29
2023-01-01T12:23:45.399Z,17.35
2023-01-01T12:26:25.844Z,17.44
2023-01-01T12:29:19.676Z,17.48
2023-01-01T12:32:00.474Z,17.46
2023-01-01T12:34:32.210Z,17.48
2023-01-01T12:37:16.982Z,17.51
2023-01-01T12:40:24.600Z,17.59
2023-01-01T12:43:26.010Z,17.61
2023-01-01T12:46:23.345Z,17.58
2023-01-01T12:49:07.920Z,17.57
2023-01-01T12:51:55.660Z,17.63
2023-01-01T12:54:56.626Z,17.66
2023-01-01T12:57:34.103Z,17.59
2023-01-01T13:00:02.522Z,17.54
2023-01-01T13:02:33.196Z,17.49
2023-01-01T13:05:07.986Z,17.53
2023-01-01T13:07:45.045Z,17.48
2023-01-01T13:10:36.617Z,17.61
2023-01-01T13:13:04.057Z,17.53
2023-01-01T13:15:40.173Z,17.66
2023-01-01T13:18:16.814Z,17.75
2023-01-01T13:20:54.900Z,17.77
2023-01-01T13:23:34.872Z,17.78
2023-01-01T13:26:23.066Z,17.72
2023-01-01T13:28:52.576Z,17.45
2023-01-01T13:31:19.162Z,17.25
2023-01-01T13:34:24.228Z,17.18
2023-01-01T13:36:50.707Z,16.86
2023-01-01T13:39:58.778Z,16.87
2023-01-01T13:43:05.653Z,16.78
2023-01-01T13:48:47.997Z,16.57
2023-01-01T13:55:06.955Z,16.26
2023-01-01T13:58:01.613Z,16.19
2023-01-01T14:00:35.059Z,16.01
2023-01-01T14:03:20.748Z,16.00
2023-01-01T14:05:59.165Z,15.89
2023-01-01T14:08:36.847Z,15.85
2023-01-01T14:11:19.107Z,15.80
2023-01-01T14:13:45.844Z,15.69
2023-01-01T14:16:14.622Z,15.59
2023-01-01T14:18:52.011Z,15.53
2023-01-01T14:21:33.889Z,15.37
2023-01-01T14:24:06.363Z,15.32
2023-01-01T14:26:36.327Z,15.20
2023-01-01T14:29:07.263Z,15.14
2023-01-01T14:31:42.827Z,15.00
2023-01-01T14:34:27.918Z,14.95
2023-01-01T14:36:59.995Z,14.90
2023-01-01T14:39:31.531Z,14.89
2023-01-01T14:42:04.672Z,14.82
2023-01-01T14:44:39.366Z,14.74
2023-01-01T14:47:21.549Z,14.67
2023-01-01T14:49:48.308Z,14.66
2023-01-01T14:52:35.408Z,14.61
2023-01-01T14:55:03.454Z,14.51
2023-01-01T14:57:37.049Z,14.50
2023-01-01T15:00:20.720Z,14.46
2023-01-01T15:02:47.242Z,14.38
2023-01-01T15:05:34.621Z,14.33
2023-01-01T15:08:05.017Z,14.23
2023-01-01T15:10:34.770Z,14.21
2023-01-01T15:13:05.300Z,14.19
2023-01-01T15:15:42.546Z,14.17
2023-01-01T15:18:45.651Z,14.11
2023-01-01T15:21:31.029Z,14.03
2023-01-01T15:24:01.524Z,13.95
2023-01-01T15:26:40.979Z,13.94
2023-01-01T15:29:16.347Z,13.92
2023-01-01T15:31:48.129Z,13.85
2023-01-01T15:34:22.863Z,13.80
2023-01-01T15:36:49.902Z,13.73
2023-01-01T15:39:16.376Z,13.76
2023-01-01T15:41:48.364Z,13.76
2023-01-01T15:44:27.167Z,13.74
2023-01-01T15:47:02.926Z,13.67
2023-01-01T15:49:30.579Z,13.68
2023-01-01T15:52:03.855Z,13.67
2023-01-01T15:54:32.977Z,13.61
2023-01-01T15:56:59.504Z,13.58
2023-01-01T15:59:30.805Z,13.60
2023-01-01T16:02:26.601Z,13.66
2023-01-01T16:04:53.657Z,13.52
2023-01-01T16:07:25.119Z,13.62
2023-01-01T16:09:57.390Z,13.58
2023-01-01T16:12:24.854Z,13.58
2023-01-01T16:14:51.334Z,13.54
2023-01-01T16:17:20.110Z,13.56
2023-01-01T16:19:47.715Z,13.60
2023-01-01T16:22:15.754Z,13.61
2023-01-01T16:24:43.301Z,13.64
2023-01-01T16:27:09.700Z,13.64
2023-01-01T16:29:36.438Z,13.63
2023-01-01T16:32:03.474Z,13.65
2023-01-01T16:34:29.867Z,13.67
2023-01-01T16:36:56.640Z,13.65
2023-01-01T16:39:23.047Z,13.65
2023-01-01T16:41:49.447Z,13.60
2023-01-01T16:44:16.286Z,13.66
2023-01-01T16:46:43.500Z,13.67
2023-01-01T16:49:09.959Z,13.69
2023-01-01T16:51:40.590Z,13.70
2023-01-01T16:54:10.534Z,13.71
2023-01-01T16:56:37.163Z,13.73
2023-01-01T16:59:03.908Z,13.75
2023-01-01T17:01:31.190Z,13.73
2023-01-01T17:03:57.942Z,13.70
2023-01-01T17:06:24.352Z,13.70
2023-01-01T17:08:50.789Z,13.63
2023-01-01T17:11:18.782Z,13.70
2023-01-01T17:13:47.427Z,13.65
2023-01-01T17:16:21.105Z,13.70
2023-01-01T17:19:14.470Z,13.71
2023-01-01T17:21:39.840Z,13.73
2023-01-01T17:24:06.998Z,13.67
2023-01-01T17:26:33.532Z,13.72
2023-01-01T17:29:01.232Z,13.72
2023-01-01T17:31:28.992Z,13.70
2023-01-01T17:33:55.938Z,13.69
2023-01-01T17:36:22.419Z,13.71
2023-01-01T17:38:48.817Z,13.68
2023-01-01T17:41:16.816Z,13.71
2023-01-01T17:43:46.022Z,13.69
2023-01-01T17:46:14.037Z,13.75
2023-01-01T17:48:41.557Z,13.71
2023-01-01T17:51:08.332Z,13.75
2023-01-01T17:53:35.097Z,13.77
2023-01-01T17:56:01.816Z,13.79
2023-01-01T17:58:33.561Z,13.79
2023-01-01T18:01:25.994Z,13.82
2023-01-01T18:03:59.407Z,13.80
2023-01-01T18:06:26.165Z,13.83
2023-01-01T18:09:00.249Z,13.80
2023-01-01T18:11:28.717Z,13.83
2023-01-01T18:13:56.489Z,13.79
2023-01-01T18:16:23.438Z,13.77
2023-01-01T18:18:50.167Z,13.77
2023-01-01T18:21:21.688Z,13.75
2023-01-01T18:23:54.006Z,13.73
2023-01-01T18:26:22.944Z,13.76
2023-01-01T18:28:58.214Z,13.78
2023-01-01T18:31:26.808Z,13.80
2023-01-01T18:33:54.206Z,13.78
2023-01-01T18:36:24.263Z,13.77
2023-01-01T18:39:00.546Z,13.69
2023-01-01T18:41:41.215Z,13.74
2023-01-01T18:44:30.584Z,13.74
2023-01-01T18:47:06.080Z,13.72
2023-01-01T18:49:37.075Z,13.69
2023-01-01T18:52:21.924Z,13.67
2023-01-01T18:54:56.957Z,13.70
2023-01-01T18:57:29.358Z,13.68
2023-01-01T18:59:59.505Z,13.66
2023-01-01T19:02:34.980Z,13.67
2023-01-01T19:05:15.653Z,13.68
2023-01-01T19:07:43.849Z,13.64
2023-01-01T19:10:13.989Z,13.65
2023-01-01T19:12:40.691Z,13.64
2023-01-01T19:15:16.242Z,13.64
2023-01-01T19:17:43.371Z,13.60
2023-01-01T19:20:24.084Z,13.61
2023-01-01T19:22:50.579Z,13.59
2023-01-01T19:25:32.295Z,13.62
2023-01-01T19:28:23.087Z,13.62
2023-01-01T19:30:49.464Z,13.60
2023-01-01T19:33:15.939Z,13.59
2023-01-01T19:35:42.381Z,13.56
2023-01-01T19:38:08.847Z,13.55
2023-01-01T19:40:35.310Z,13.54
2023-01-01T19:43:03.579Z,13.55
2023-01-01T19:45:30.037Z,13.54
2023-01-01T19:47:56.678Z,13.56
2023-01-01T19:50:23.199Z,13.56
2023-01-01T19:52:49.717Z,13.56
2023-01-01T19:55:16.299Z,13.58
2023-01-01T19:57:42.677Z,13.55
2023-01-01T20:00:09.749Z,13.58
2023-01-01T20:02:45.895Z,13.54
2023-01-01T20:05:13.679Z,13.57
2023-01-01T20:07:40.116Z,13.56
2023-01-01T20:10:06.884Z,13.59
2023-01-01T20:12:33.290Z,13.61
2023-01-01T20:14:59.702Z,13.61
2023-01-01T20:17:26.197Z,13.59
2023-01-01T20:19:54.725Z,13.64
2023-01-01T20:22:21.959Z,13.65
2023-01-01T20:24:48.534Z,13.65
2023-01-01T20:27:18.982Z,13.62
2023-01-01T20:29:45.496Z,13.66
2023-01-01T20:32:13.213Z,13.65
2023-01-01T20:34:40.324Z,13.62
2023-01-01T20:37:26.177Z,13.55
2023-01-01T20:39:53.253Z,13.62
2023-01-01T20:42:20.288Z,13.61
2023-01-01T20:44:46.765Z,13.60
2023-01-01T20:47:14.032Z,13.59
2023-01-01T20:49:41.492Z,13.53
2023-01-01T20:52:08.158Z,13.54
2023-01-01T20:54:34.816Z,13.46
2023-01-01T20:57:01.534Z,13.48
2023-01-01T20:59:37.316Z,13.45
2023-01-01T21:02:09.357Z,13.46
2023-01-01T21:04:38.735Z,13.45
2023-01-01T21:07:10.560Z,13.44
2023-01-01T21:09:38.021Z,13.41
2023-01-01T21:12:05.470Z,13.36
2023-01-01T21:14:32.418Z,13.34
2023-01-01T21:16:59.038Z,13.31
2023-01-01T21:19:27.278Z,13.29
2023-01-01T21:21:58.380Z,13.27
2023-01-01T21:24:35.010Z,13.21
2023-01-01T21:27:13.771Z,13.20
2023-01-01T21:29:49.028Z,13.15
2023-01-01T21:32:32.493Z,13.13
2023-01-01T21:34:58.954Z,13.08
2023-01-01T21:37:47.230Z,13.07
2023-01-01T21:40:38.351Z,13.07
2023-01-01T21:43:04.733Z,13.01
2023-01-01T21:45:38.163Z,13.02
2023-01-01T21:48:28.966Z,13.02
2023-01-01T21:50:55.452Z,13.00
2023-01-01T21:53:35.994Z,12.98
2023-01-01T21:56:18.166Z,12.99
2023-01-01T21:59:04.313Z,12.96
2023-01-01T22:01:38.497Z,12.97
2023-01-01T22:04:10.892Z,12.96
2023-01-01T22:06:40.398Z,12.94
2023-01-01T22:09:25.418Z,12.94
2023-01-01T22:11:59.188Z,12.90
2023-01-01T22:14:34.165Z,12.86
2023-01-01T22:17:00.742Z,12.86
2023-01-01T22:19:36.978Z,12.86
2023-01-01T22:22:12.133Z,12.83
2023-01-01T22:24:38.561Z,12.81
2023-01-01T22:27:25.479Z,12.81
2023-01-01T22:29:52.317Z,12.76
2023-01-01T22:32:28.109Z,12.78
2023-01-01T22:35:13.042Z,12.79
2023-01-01T22:37:41.593Z,12.76
2023-01-01T22:40:17.366Z,12.76
2023-01-01T22:42:43.793Z,12.75
2023-01-01T22:45:17.084Z,12.75
2023-01-01T22:47:46.914Z,12.73
2023-01-01T22:50:22.226Z,12.76
2023-01-01T22:52:49.407Z,12.75
2023-01-01T22:55:16.532Z,12.75
2023-01-01T22:57:43.268Z,12.74
2023-01-01T23:00:12.011Z,12.75
2023-01-01T23:02:38.423Z,12.69
2023-01-01T23:05:05.783Z,12.74
2023-01-01T23:07:39.710Z,12.76
2023-01-01T23:10:10.813Z,12.77
2023-01-01T23:12:37.270Z,12.77
2023-01-01T23:15:22.860Z,12.79
2023-01-01T23:17:50.337Z,12.81
2023-01-01T23:20:16.951Z,12.79
2023-01-01T23:22:47.470Z,12.82
2023-01-01T23:25:17.539Z,12.83
2023-01-01T23:27:46.478Z,12.86
2023-01-01T23:30:13.794Z,12.88
2023-01-01T23:32:41.780Z,12.89
2023-01-01T23:35:09.344Z,12.91
2023-01-01T23:37:36.189Z,12.94
2023-01-01T23:40:02.659Z,12.97
2023-01-01T23:42:29.097Z,12.98
2023-01-01T23:44:55.476Z,13.00
2023-01-01T23:47:22.037Z,13.00
2023-01-01T23:49:48.525Z,13.08
2023-01-01T23:52:14.943Z,13.11
2023-01-01T23:54:41.417Z,13.11
2023-01-01T23:57:07.988Z,13.10
2023-01-01T23:59:34.344Z,13.15
